sensor_id;sensor_type;location;lat;lon;timestamp;pressure;altitude;pressure_sealevel;temperature;humidity
77090;BME280;66028;53.558;9.950;2024-01-11T00:01:09;103179.19;;;-3.06;92.61
77090;BME280;66028;53.558;9.950;2024-01-11T00:03:35;103169.81;;;-2.97;92.36
77090;BME280;66028;53.558;9.950;2024-01-11T00:06:00;103166.72;;;-3.04;92.74
77090;BME280;66028;53.558;9.950;2024-01-11T00:08:26;103168.63;;;-2.92;92.50
77090;BME280;66028;53.558;9.950;2024-01-11T00:10:51;103165.56;;;-2.85;92.48
77090;BME280;66028;53.558;9.950;2024-01-11T00:13:16;103155.81;;;-2.85;92.23
77090;BME280;66028;53.558;9.950;2024-01-11T00:15:42;103148.91;;;-3.02;92.39
77090;BME280;66028;53.558;9.950;2024-01-11T00:18:07;103133.56;;;-2.97;92.63
77090;BME280;66028;53.558;9.950;2024-01-11T00:20:32;103130.66;;;-2.92;92.53
77090;BME280;66028;53.558;9.950;2024-01-11T00:22:58;103129.22;;;-2.98;92.69
77090;BME280;66028;53.558;9.950;2024-01-11T00:25:23;103130.75;;;-2.94;93.04
77090;BME280;66028;53.558;9.950;2024-01-11T00:27:48;103134.44;;;-2.82;92.88
77090;BME280;66028;53.558;9.950;2024-01-11T00:30:14;103131.31;;;-2.74;92.44
77090;BME280;66028;53.558;9.950;2024-01-11T00:32:39;103120.69;;;-2.88;92.65
77090;BME280;66028;53.558;9.950;2024-01-11T00:35:05;103120.25;;;-2.67;92.48
77090;BME280;66028;53.558;9.950;2024-01-11T00:37:30;103105.94;;;-2.78;91.91
77090;BME280;66028;53.558;9.950;2024-01-11T00:39:56;103113.41;;;-2.85;92.14
77090;BME280;66028;53.558;9.950;2024-01-11T00:42:21;103107.84;;;-2.80;92.27
77090;BME280;66028;53.558;9.950;2024-01-11T00:44:46;103117.41;;;-2.78;92.83
77090;BME280;66028;53.558;9.950;2024-01-11T00:47:11;103105.19;;;-2.80;92.44
77090;BME280;66028;53.558;9.950;2024-01-11T00:49:37;103107.56;;;-2.90;92.51
77090;BME280;66028;53.558;9.950;2024-01-11T00:52:02;103113.69;;;-2.75;92.67
77090;BME280;66028;53.558;9.950;2024-01-11T00:54:27;103105.94;;;-2.78;92.66
77090;BME280;66028;53.558;9.950;2024-01-11T00:56:53;103098.38;;;-2.84;92.21
77090;BME280;66028;53.558;9.950;2024-01-11T00:59:18;103102.63;;;-2.82;92.62
77090;BME280;66028;53.558;9.950;2024-01-11T01:01:50;103088.53;;;-2.82;92.61
77090;BME280;66028;53.558;9.950;2024-01-11T01:04:15;103081.16;;;-2.92;92.25
77090;BME280;66028;53.558;9.950;2024-01-11T01:06:41;103064.75;;;-2.84;92.77
77090;BME280;66028;53.558;9.950;2024-01-11T01:09:06;103062.50;;;-2.90;92.27
77090;BME280;66028;53.558;9.950;2024-01-11T01:11:32;103069.59;;;-2.91;92.09
77090;BME280;66028;53.558;9.950;2024-01-11T01:13:57;103075.25;;;-2.82;92.89
77090;BME280;66028;53.558;9.950;2024-01-11T01:16:22;103080.38;;;-2.94;92.39
77090;BME280;66028;53.558;9.950;2024-01-11T01:18:48;103063.44;;;-2.91;93.06
77090;BME280;66028;53.558;9.950;2024-01-11T01:21:13;103055.78;;;-2.96;92.53
77090;BME280;66028;53.558;9.950;2024-01-11T01:23:38;103067.03;;;-2.92;92.98
77090;BME280;66028;53.558;9.950;2024-01-11T01:26:03;103064.00;;;-3.00;93.48
77090;BME280;66028;53.558;9.950;2024-01-11T01:28:29;103043.81;;;-2.88;93.14
77090;BME280;66028;53.558;9.950;2024-01-11T01:30:54;103058.50;;;-2.97;92.95
77090;BME280;66028;53.558;9.950;2024-01-11T01:33:19;103067.22;;;-2.95;93.27
77090;BME280;66028;53.558;9.950;2024-01-11T01:35:45;103073.66;;;-2.99;93.34
77090;BME280;66028;53.558;9.950;2024-01-11T01:38:11;103077.25;;;-3.00;93.30
77090;BME280;66028;53.558;9.950;2024-01-11T01:40:37;103079.81;;;-2.84;93.40
77090;BME280;66028;53.558;9.950;2024-01-11T01:43:06;103076.03;;;-2.95;93.22
77090;BME280;66028;53.558;9.950;2024-01-11T01:45:32;103057.38;;;-2.93;93.85
77090;BME280;66028;53.558;9.950;2024-01-11T01:47:57;103058.34;;;-2.94;93.34
77090;BME280;66028;53.558;9.950;2024-01-11T01:50:23;103060.88;;;-2.93;93.30
77090;BME280;66028;53.558;9.950;2024-01-11T01:52:48;103044.22;;;-2.95;93.32
77090;BME280;66028;53.558;9.950;2024-01-11T01:55:14;103056.44;;;-3.06;93.42
77090;BME280;66028;53.558;9.950;2024-01-11T01:57:42;103064.56;;;-2.95;93.70
77090;BME280;66028;53.558;9.950;2024-01-11T02:00:11;103065.53;;;-2.96;93.42
77090;BME280;66028;53.558;9.950;2024-01-11T02:02:39;103083.63;;;-3.03;93.42
77090;BME280;66028;53.558;9.950;2024-01-11T02:05:05;103087.66;;;-2.97;93.81
77090;BME280;66028;53.558;9.950;2024-01-11T02:07:31;103103.19;;;-3.05;93.41
77090;BME280;66028;53.558;9.950;2024-01-11T02:09:57;103113.03;;;-2.93;94.05
77090;BME280;66028;53.558;9.950;2024-01-11T02:12:23;103122.72;;;-2.92;93.68
77090;BME280;66028;53.558;9.950;2024-01-11T02:14:49;103103.22;;;-2.91;93.41
77090;BME280;66028;53.558;9.950;2024-01-11T02:17:14;103090.69;;;-2.89;93.67
77090;BME280;66028;53.558;9.950;2024-01-11T02:19:40;103097.41;;;-2.83;93.50
77090;BME280;66028;53.558;9.950;2024-01-11T02:22:11;103107.44;;;-2.88;93.33
77090;BME280;66028;53.558;9.950;2024-01-11T02:24:38;103099.69;;;-2.92;93.57
77090;BME280;66028;53.558;9.950;2024-01-11T02:27:04;103102.81;;;-2.85;93.41
77090;BME280;66028;53.558;9.950;2024-01-11T02:29:30;103115.97;;;-2.83;92.96
77090;BME280;66028;53.558;9.950;2024-01-11T02:31:57;103116.56;;;-2.78;93.25
77090;BME280;66028;53.558;9.950;2024-01-11T02:34:23;103095.03;;;-2.88;93.50
77090;BME280;66028;53.558;9.950;2024-01-11T02:36:49;103112.84;;;-2.76;93.32
77090;BME280;66028;53.558;9.950;2024-01-11T02:39:16;103110.94;;;-2.74;92.82
77090;BME280;66028;53.558;9.950;2024-01-11T02:41:43;103109.31;;;-2.76;92.50
77090;BME280;66028;53.558;9.950;2024-01-11T02:44:08;103120.69;;;-2.74;92.52
77090;BME280;66028;53.558;9.950;2024-01-11T02:46:34;103125.25;;;-2.76;92.88
77090;BME280;66028;53.558;9.950;2024-01-11T02:48:59;103115.31;;;-2.73;92.84
77090;BME280;66028;53.558;9.950;2024-01-11T02:51:24;103093.22;;;-2.73;93.00
77090;BME280;66028;53.558;9.950;2024-01-11T02:53:50;103093.22;;;-2.73;92.88
77090;BME280;66028;53.558;9.950;2024-01-11T02:56:15;103105.91;;;-2.64;93.50
77090;BME280;66028;53.558;9.950;2024-01-11T02:58:40;103098.91;;;-2.65;93.15
77090;BME280;66028;53.558;9.950;2024-01-11T03:01:06;103088.59;;;-2.70;93.11
77090;BME280;66028;53.558;9.950;2024-01-11T03:03:31;103094.44;;;-2.65;93.52
77090;BME280;66028;53.558;9.950;2024-01-11T03:05:56;103098.34;;;-2.70;93.34
77090;BME280;66028;53.558;9.950;2024-01-11T03:08:21;103091.59;;;-2.62;93.35
77090;BME280;66028;53.558;9.950;2024-01-11T03:10:47;103088.59;;;-2.70;93.35
77090;BME280;66028;53.558;9.950;2024-01-11T03:13:12;103089.72;;;-2.60;93.34
77090;BME280;66028;53.558;9.950;2024-01-11T03:15:38;103096.44;;;-2.54;92.86
77090;BME280;66028;53.558;9.950;2024-01-11T03:18:03;103096.31;;;-2.53;92.95
77090;BME280;66028;53.558;9.950;2024-01-11T03:20:29;103095.19;;;-2.48;93.50
77090;BME280;66028;53.558;9.950;2024-01-11T03:22:54;103095.38;;;-2.51;93.58
77090;BME280;66028;53.558;9.950;2024-01-11T03:25:19;103092.81;;;-2.53;93.40
77090;BME280;66028;53.558;9.950;2024-01-11T03:27:45;103083.72;;;-2.49;93.67
77090;BME280;66028;53.558;9.950;2024-01-11T03:30:11;103080.28;;;-2.37;93.02
77090;BME280;66028;53.558;9.950;2024-01-11T03:32:36;103088.66;;;-2.43;93.18
77090;BME280;66028;53.558;9.950;2024-01-11T03:35:05;103091.41;;;-2.44;93.40
77090;BME280;66028;53.558;9.950;2024-01-11T03:37:30;103090.22;;;-2.40;92.92
77090;BME280;66028;53.558;9.950;2024-01-11T03:39:56;103093.63;;;-2.38;93.69
77090;BME280;66028;53.558;9.950;2024-01-11T03:42:21;103094.03;;;-2.30;93.02
77090;BME280;66028;53.558;9.950;2024-01-11T03:44:46;103106.53;;;-2.32;92.71
77090;BME280;66028;53.558;9.950;2024-01-11T03:47:11;103115.25;;;-2.30;93.15
77090;BME280;66028;53.558;9.950;2024-01-11T03:49:37;103109.47;;;-2.37;92.78
77090;BME280;66028;53.558;9.950;2024-01-11T03:52:02;103121.09;;;-2.25;92.82
77090;BME280;66028;53.558;9.950;2024-01-11T03:54:27;103127.34;;;-2.26;92.39
77090;BME280;66028;53.558;9.950;2024-01-11T03:56:53;103124.72;;;-2.40;92.28
77090;BME280;66028;53.558;9.950;2024-01-11T03:59:18;103116.91;;;-2.29;92.72
77090;BME280;66028;53.558;9.950;2024-01-11T04:01:43;103108.78;;;-2.26;92.46
77090;BME280;66028;53.558;9.950;2024-01-11T04:04:10;103098.34;;;-2.29;92.78
77090;BME280;66028;53.558;9.950;2024-01-11T04:06:35;103077.88;;;-2.27;92.62
77090;BME280;66028;53.558;9.950;2024-01-11T04:09:00;103078.28;;;-2.33;92.29
77090;BME280;66028;53.558;9.950;2024-01-11T04:11:28;103066.63;;;-2.31;93.05
77090;BME280;66028;53.558;9.950;2024-01-11T04:13:54;103066.50;;;-2.42;92.95
77090;BME280;66028;53.558;9.950;2024-01-11T04:16:20;103059.56;;;-2.44;93.15
77090;BME280;66028;53.558;9.950;2024-01-11T04:18:45;103062.38;;;-2.33;92.65
77090;BME280;66028;53.558;9.950;2024-01-11T04:21:23;103037.56;;;-2.32;92.75
77090;BME280;66028;53.558;9.950;2024-01-11T04:23:49;103038.97;;;-2.41;92.72
77090;BME280;66028;53.558;9.950;2024-01-11T04:26:15;103043.16;;;-2.37;92.90
77090;BME280;66028;53.558;9.950;2024-01-11T04:28:40;103028.53;;;-2.30;93.12
77090;BME280;66028;53.558;9.950;2024-01-11T04:31:08;103013.00;;;-2.36;93.10
77090;BME280;66028;53.558;9.950;2024-01-11T04:33:33;103033.09;;;-2.32;93.17
77090;BME280;66028;53.558;9.950;2024-01-11T04:35:59;103022.81;;;-2.24;92.50
77090;BME280;66028;53.558;9.950;2024-01-11T04:38:24;103009.56;;;-2.24;92.37
77090;BME280;66028;53.558;9.950;2024-01-11T04:40:49;103005.09;;;-2.23;92.00
77090;BME280;66028;53.558;9.950;2024-01-11T04:43:14;103010.31;;;-2.22;92.00
77090;BME280;66028;53.558;9.950;2024-01-11T04:45:40;103020.06;;;-2.22;92.38
77090;BME280;66028;53.558;9.950;2024-01-11T04:48:05;103020.31;;;-2.12;92.22
77090;BME280;66028;53.558;9.950;2024-01-11T04:50:30;103005.53;;;-2.17;92.28
77090;BME280;66028;53.558;9.950;2024-01-11T04:52:56;103002.78;;;-2.15;92.28
77090;BME280;66028;53.558;9.950;2024-01-11T04:55:21;102992.69;;;-2.23;92.57
77090;BME280;66028;53.558;9.950;2024-01-11T04:57:46;102989.59;;;-2.17;92.12
77090;BME280;66028;53.558;9.950;2024-01-11T05:00:12;102990.16;;;-2.11;91.85
77090;BME280;66028;53.558;9.950;2024-01-11T05:02:37;103015.94;;;-2.13;91.48
77090;BME280;66028;53.558;9.950;2024-01-11T05:05:03;103026.91;;;-2.05;91.03
77090;BME280;66028;53.558;9.950;2024-01-11T05:07:28;103036.31;;;-2.14;90.89
77090;BME280;66028;53.558;9.950;2024-01-11T05:09:53;103031.22;;;-2.17;91.19
77090;BME280;66028;53.558;9.950;2024-01-11T05:12:19;103041.28;;;-2.22;91.25
77090;BME280;66028;53.558;9.950;2024-01-11T05:14:44;103031.72;;;-2.25;91.89
77090;BME280;66028;53.558;9.950;2024-01-11T05:17:09;103028.41;;;-2.28;91.64
77090;BME280;66028;53.558;9.950;2024-01-11T05:19:35;103025.22;;;-2.33;91.07
77090;BME280;66028;53.558;9.950;2024-01-11T05:22:00;103019.16;;;-2.35;91.23
77090;BME280;66028;53.558;9.950;2024-01-11T05:24:25;103013.34;;;-2.28;90.85
77090;BME280;66028;53.558;9.950;2024-01-11T05:26:50;103029.28;;;-2.28;91.32
77090;BME280;66028;53.558;9.950;2024-01-11T05:29:16;103033.72;;;-2.28;90.89
77090;BME280;66028;53.558;9.950;2024-01-11T05:31:41;103038.75;;;-2.24;90.97
77090;BME280;66028;53.558;9.950;2024-01-11T05:34:06;103037.44;;;-2.31;91.43
77090;BME280;66028;53.558;9.950;2024-01-11T05:36:32;103055.28;;;-2.33;91.41
77090;BME280;66028;53.558;9.950;2024-01-11T05:38:57;103054.09;;;-2.29;91.51
77090;BME280;66028;53.558;9.950;2024-01-11T05:41:22;103052.09;;;-2.25;91.75
77090;BME280;66028;53.558;9.950;2024-01-11T05:43:48;103050.53;;;-2.15;91.45
77090;BME280;66028;53.558;9.950;2024-01-11T05:46:13;103051.63;;;-2.17;91.72
77090;BME280;66028;53.558;9.950;2024-01-11T05:48:38;103037.22;;;-2.28;92.03
77090;BME280;66028;53.558;9.950;2024-01-11T05:51:04;103032.69;;;-2.26;92.40
77090;BME280;66028;53.558;9.950;2024-01-11T05:53:29;103028.66;;;-2.31;92.08
77090;BME280;66028;53.558;9.950;2024-01-11T05:55:54;103016.09;;;-2.29;92.46
77090;BME280;66028;53.558;9.950;2024-01-11T05:58:19;103015.28;;;-2.30;92.65
77090;BME280;66028;53.558;9.950;2024-01-11T06:00:45;103014.47;;;-2.17;92.76
77090;BME280;66028;53.558;9.950;2024-01-11T06:03:12;103010.22;;;-2.20;92.55
77090;BME280;66028;53.558;9.950;2024-01-11T06:05:37;103009.16;;;-2.17;92.55
77090;BME280;66028;53.558;9.950;2024-01-11T06:08:03;103001.59;;;-2.24;93.10
77090;BME280;66028;53.558;9.950;2024-01-11T06:10:28;103001.28;;;-2.19;93.04
77090;BME280;66028;53.558;9.950;2024-01-11T06:12:53;103004.44;;;-2.27;92.73
77090;BME280;66028;53.558;9.950;2024-01-11T06:15:19;103010.63;;;-2.13;92.93
77090;BME280;66028;53.558;9.950;2024-01-11T06:17:44;103005.75;;;-2.20;93.34
77090;BME280;66028;53.558;9.950;2024-01-11T06:20:10;103011.25;;;-2.23;93.33
77090;BME280;66028;53.558;9.950;2024-01-11T06:22:36;103002.75;;;-2.28;93.41
77090;BME280;66028;53.558;9.950;2024-01-11T06:25:01;103002.63;;;-2.26;93.66
77090;BME280;66028;53.558;9.950;2024-01-11T06:27:27;103003.09;;;-2.20;93.76
77090;BME280;66028;53.558;9.950;2024-01-11T06:29:52;103010.78;;;-2.02;93.71
77090;BME280;66028;53.558;9.950;2024-01-11T06:32:17;103016.69;;;-2.11;93.51
77090;BME280;66028;53.558;9.950;2024-01-11T06:34:43;103008.63;;;-2.10;93.61
77090;BME280;66028;53.558;9.950;2024-01-11T06:37:11;103008.47;;;-1.94;93.45
77090;BME280;66028;53.558;9.950;2024-01-11T06:39:36;103005.16;;;-1.98;93.05
77090;BME280;66028;53.558;9.950;2024-01-11T06:42:02;103007.69;;;-2.09;93.69
77090;BME280;66028;53.558;9.950;2024-01-11T06:44:27;103004.09;;;-2.08;93.41
77090;BME280;66028;53.558;9.950;2024-01-11T06:46:52;103009.16;;;-2.05;94.10
77090;BME280;66028;53.558;9.950;2024-01-11T06:49:18;103023.09;;;-2.01;94.24
77090;BME280;66028;53.558;9.950;2024-01-11T06:51:43;103024.72;;;-1.86;94.06
77090;BME280;66028;53.558;9.950;2024-01-11T06:54:08;103028.63;;;-1.92;94.12
77090;BME280;66028;53.558;9.950;2024-01-11T06:56:33;103009.31;;;-1.94;94.21
77090;BME280;66028;53.558;9.950;2024-01-11T06:58:59;103015.22;;;-2.03;94.60
77090;BME280;66028;53.558;9.950;2024-01-11T07:01:24;103017.91;;;-1.90;94.55
77090;BME280;66028;53.558;9.950;2024-01-11T07:03:50;103024.16;;;-1.91;94.46
77090;BME280;66028;53.558;9.950;2024-01-11T07:06:15;103021.00;;;-1.96;94.88
77090;BME280;66028;53.558;9.950;2024-01-11T07:08:41;103020.34;;;-2.00;94.74
77090;BME280;66028;53.558;9.950;2024-01-11T07:11:06;103018.53;;;-1.99;94.72
77090;BME280;66028;53.558;9.950;2024-01-11T07:13:32;103020.75;;;-1.93;95.19
77090;BME280;66028;53.558;9.950;2024-01-11T07:15:58;103026.53;;;-1.87;95.13
77090;BME280;66028;53.558;9.950;2024-01-11T07:18:24;103044.56;;;-1.92;94.67
77090;BME280;66028;53.558;9.950;2024-01-11T07:20:50;103044.81;;;-1.82;95.03
77090;BME280;66028;53.558;9.950;2024-01-11T07:23:16;103032.69;;;-1.86;95.23
77090;BME280;66028;53.558;9.950;2024-01-11T07:25:42;103040.03;;;-1.77;95.07
77090;BME280;66028;53.558;9.950;2024-01-11T07:28:08;103042.69;;;-1.77;95.23
77090;BME280;66028;53.558;9.950;2024-01-11T07:30:33;103032.81;;;-1.75;95.11
77090;BME280;66028;53.558;9.950;2024-01-11T07:32:59;103030.25;;;-1.76;95.46
77090;BME280;66028;53.558;9.950;2024-01-11T07:35:24;103027.50;;;-1.62;96.00
77090;BME280;66028;53.558;9.950;2024-01-11T07:37:49;103045.25;;;-1.50;95.64
77090;BME280;66028;53.558;9.950;2024-01-11T07:40:15;103047.81;;;-1.61;95.42
77090;BME280;66028;53.558;9.950;2024-01-11T07:42:42;103065.13;;;-1.56;95.43
77090;BME280;66028;53.558;9.950;2024-01-11T07:45:07;103048.56;;;-1.59;95.58
77090;BME280;66028;53.558;9.950;2024-01-11T07:47:35;103039.84;;;-1.61;95.64
77090;BME280;66028;53.558;9.950;2024-01-11T07:50:01;103034.19;;;-1.57;95.63
77090;BME280;66028;53.558;9.950;2024-01-11T07:52:26;103040.25;;;-1.55;95.62
77090;BME280;66028;53.558;9.950;2024-01-11T07:54:52;103048.31;;;-1.56;95.60
77090;BME280;66028;53.558;9.950;2024-01-11T07:57:19;103056.53;;;-1.59;95.52
77090;BME280;66028;53.558;9.950;2024-01-11T07:59:44;103053.00;;;-1.60;95.83
77090;BME280;66028;53.558;9.950;2024-01-11T08:02:09;103057.38;;;-1.59;95.64
77090;BME280;66028;53.558;9.950;2024-01-11T08:04:35;103070.44;;;-1.56;95.66
77090;BME280;66028;53.558;9.950;2024-01-11T08:07:00;103065.13;;;-1.56;95.52
77090;BME280;66028;53.558;9.950;2024-01-11T08:09:26;103058.00;;;-1.55;95.55
77090;BME280;66028;53.558;9.950;2024-01-11T08:11:51;103050.03;;;-1.55;95.77
77090;BME280;66028;53.558;9.950;2024-01-11T08:14:19;103055.13;;;-1.52;95.56
77090;BME280;66028;53.558;9.950;2024-01-11T08:16:45;103049.94;;;-1.54;95.56
77090;BME280;66028;53.558;9.950;2024-01-11T08:19:10;103048.22;;;-1.42;95.42
77090;BME280;66028;53.558;9.950;2024-01-11T08:21:35;103044.31;;;-1.36;95.18
77090;BME280;66028;53.558;9.950;2024-01-11T08:24:01;103036.75;;;-1.30;95.07
77090;BME280;66028;53.558;9.950;2024-01-11T08:26:28;103036.13;;;-1.33;94.82
77090;BME280;66028;53.558;9.950;2024-01-11T08:28:53;103028.78;;;-1.42;94.54
77090;BME280;66028;53.558;9.950;2024-01-11T08:31:18;103028.28;;;-1.35;94.74
77090;BME280;66028;53.558;9.950;2024-01-11T08:33:44;103023.16;;;-1.38;94.82
77090;BME280;66028;53.558;9.950;2024-01-11T08:36:09;103032.19;;;-1.28;94.70
77090;BME280;66028;53.558;9.950;2024-01-11T08:38:36;103023.03;;;-1.24;94.95
77090;BME280;66028;53.558;9.950;2024-01-11T08:41:02;103024.75;;;-1.23;94.78
77090;BME280;66028;53.558;9.950;2024-01-11T08:43:28;103014.97;;;-1.10;94.51
77090;BME280;66028;53.558;9.950;2024-01-11T08:45:53;103014.84;;;-1.21;94.07
77090;BME280;66028;53.558;9.950;2024-01-11T08:48:19;103017.06;;;-1.15;94.51
77090;BME280;66028;53.558;9.950;2024-01-11T08:50:44;103019.19;;;-1.20;94.24
77090;BME280;66028;53.558;9.950;2024-01-11T08:53:10;103021.75;;;-1.18;94.41
77090;BME280;66028;53.558;9.950;2024-01-11T08:55:35;103015.56;;;-1.06;94.20
77090;BME280;66028;53.558;9.950;2024-01-11T08:58:00;103022.06;;;-1.10;94.01
77090;BME280;66028;53.558;9.950;2024-01-11T09:00:26;103012.50;;;-1.13;93.96
77090;BME280;66028;53.558;9.950;2024-01-11T09:02:53;103004.94;;;-1.06;93.77
77090;BME280;66028;53.558;9.950;2024-01-11T09:05:18;103014.81;;;-1.08;93.68
77090;BME280;66028;53.558;9.950;2024-01-11T09:07:44;103003.84;;;-0.91;93.80
77090;BME280;66028;53.558;9.950;2024-01-11T09:10:09;102997.66;;;-0.91;93.56
77090;BME280;66028;53.558;9.950;2024-01-11T09:12:36;103008.97;;;-1.00;93.30
77090;BME280;66028;53.558;9.950;2024-01-11T09:15:03;103008.31;;;-0.91;93.23
77090;BME280;66028;53.558;9.950;2024-01-11T09:17:28;103009.06;;;-0.89;93.29
77090;BME280;66028;53.558;9.950;2024-01-11T09:19:53;102999.91;;;-0.85;93.35
77090;BME280;66028;53.558;9.950;2024-01-11T09:22:19;102994.06;;;-0.90;93.10
77090;BME280;66028;53.558;9.950;2024-01-11T09:24:44;102990.72;;;-0.81;93.19
77090;BME280;66028;53.558;9.950;2024-01-11T09:27:09;102992.03;;;-0.87;93.29
77090;BME280;66028;53.558;9.950;2024-01-11T09:29:35;102995.31;;;-0.83;93.34
77090;BME280;66028;53.558;9.950;2024-01-11T09:32:00;102999.63;;;-0.69;93.41
77090;BME280;66028;53.558;9.950;2024-01-11T09:34:26;102997.28;;;-0.61;93.16
77090;BME280;66028;53.558;9.950;2024-01-11T09:36:51;102991.53;;;-0.68;92.87
77090;BME280;66028;53.558;9.950;2024-01-11T09:39:17;103003.09;;;-0.56;93.15
77090;BME280;66028;53.558;9.950;2024-01-11T09:41:51;103003.78;;;-0.65;93.38
77090;BME280;66028;53.558;9.950;2024-01-11T09:44:17;102995.63;;;-0.75;93.59
77090;BME280;66028;53.558;9.950;2024-01-11T09:46:43;102993.56;;;-0.72;93.58
77090;BME280;66028;53.558;9.950;2024-01-11T09:49:09;102987.09;;;-0.80;93.62
77090;BME280;66028;53.558;9.950;2024-01-11T09:51:37;102993.00;;;-0.88;93.75
77090;BME280;66028;53.558;9.950;2024-01-11T09:54:03;102999.78;;;-0.84;94.03
77090;BME280;66028;53.558;9.950;2024-01-11T09:56:29;102989.31;;;-0.98;94.17
77090;BME280;66028;53.558;9.950;2024-01-11T09:58:55;102990.34;;;-0.88;93.92
77090;BME280;66028;53.558;9.950;2024-01-11T10:01:20;102981.81;;;-0.93;94.14
77090;BME280;66028;53.558;9.950;2024-01-11T10:03:46;102976.28;;;-0.90;94.34
77090;BME280;66028;53.558;9.950;2024-01-11T10:06:13;102993.00;;;-0.88;94.06
77090;BME280;66028;53.558;9.950;2024-01-11T10:08:38;102989.03;;;-0.82;93.55
77090;BME280;66028;53.558;9.950;2024-01-11T10:11:04;102991.28;;;-0.89;93.47
77090;BME280;66028;53.558;9.950;2024-01-11T10:13:32;102973.91;;;-0.82;93.90
77090;BME280;66028;53.558;9.950;2024-01-11T10:16:07;102969.56;;;-0.83;93.60
77090;BME280;66028;53.558;9.950;2024-01-11T10:18:33;102975.69;;;-0.69;93.19
77090;BME280;66028;53.558;9.950;2024-01-11T10:20:59;102985.50;;;-0.83;93.47
77090;BME280;66028;53.558;9.950;2024-01-11T10:23:24;102972.28;;;-0.72;93.50
77090;BME280;66028;53.558;9.950;2024-01-11T10:25:49;102974.19;;;-0.61;93.11
77090;BME280;66028;53.558;9.950;2024-01-11T10:28:15;102960.25;;;-0.64;93.08
77090;BME280;66028;53.558;9.950;2024-01-11T10:30:41;102955.19;;;-0.56;92.76
77090;BME280;66028;53.558;9.950;2024-01-11T10:33:07;102976.38;;;-0.55;92.73
77090;BME280;66028;53.558;9.950;2024-01-11T10:35:33;102963.75;;;-0.64;92.46
77090;BME280;66028;53.558;9.950;2024-01-11T10:38:03;102971.00;;;-0.66;92.66
77090;BME280;66028;53.558;9.950;2024-01-11T10:40:32;102969.56;;;-0.59;92.52
77090;BME280;66028;53.558;9.950;2024-01-11T10:42:59;102970.78;;;-0.63;92.61
77090;BME280;66028;53.558;9.950;2024-01-11T10:45:27;102985.53;;;-0.59;92.54
77090;BME280;66028;53.558;9.950;2024-01-11T10:47:56;102993.50;;;-0.59;92.30
77090;BME280;66028;53.558;9.950;2024-01-11T10:50:26;103001.81;;;-0.51;92.50
77090;BME280;66028;53.558;9.950;2024-01-11T10:55:41;103023.16;;;-0.40;92.83
77090;BME280;66028;53.558;9.950;2024-01-11T10:58:07;103021.56;;;-0.42;93.01
77090;BME280;66028;53.558;9.950;2024-01-11T11:00:34;103023.53;;;-0.33;92.60
77090;BME280;66028;53.558;9.950;2024-01-11T11:03:00;103028.97;;;-0.34;92.66
77090;BME280;66028;53.558;9.950;2024-01-11T11:05:29;103014.59;;;-0.32;92.43
77090;BME280;66028;53.558;9.950;2024-01-11T11:07:58;103021.94;;;-0.36;92.31
77090;BME280;66028;53.558;9.950;2024-01-11T11:10:26;103014.84;;;-0.24;92.27
77090;BME280;66028;53.558;9.950;2024-01-11T11:12:54;103017.25;;;-0.32;92.13
77090;BME280;66028;53.558;9.950;2024-01-11T11:15:20;103023.31;;;-0.30;92.53
77090;BME280;66028;53.558;9.950;2024-01-11T11:17:49;103030.81;;;-0.24;92.15
77090;BME280;66028;53.558;9.950;2024-01-11T11:20:16;103017.19;;;-0.19;92.80
77090;BME280;66028;53.558;9.950;2024-01-11T11:22:42;103001.84;;;-0.16;92.42
77090;BME280;66028;53.558;9.950;2024-01-11T11:25:11;102988.03;;;-0.10;92.06
77090;BME280;66028;53.558;9.950;2024-01-11T11:27:49;102970.88;;;-0.06;91.90
77090;BME280;66028;53.558;9.950;2024-01-11T11:30:18;102975.59;;;-0.09;91.97
77090;BME280;66028;53.558;9.950;2024-01-11T11:32:46;102972.94;;;-0.09;92.24
77090;BME280;66028;53.558;9.950;2024-01-11T11:35:12;102981.16;;;-0.12;92.48
77090;BME280;66028;53.558;9.950;2024-01-11T11:37:39;102984.19;;;-0.06;92.51
77090;BME280;66028;53.558;9.950;2024-01-11T11:40:06;102975.63;;;0.02;92.37
77090;BME280;66028;53.558;9.950;2024-01-11T11:42:35;102974.19;;;0.09;92.53
77090;BME280;66028;53.558;9.950;2024-01-11T11:45:01;102963.66;;;0.08;92.41
77090;BME280;66028;53.558;9.950;2024-01-11T11:47:34;102966.44;;;0.06;92.53
77090;BME280;66028;53.558;9.950;2024-01-11T11:50:10;102969.22;;;0.05;92.58
77090;BME280;66028;53.558;9.950;2024-01-11T11:52:38;102976.88;;;0.09;92.95
77090;BME280;66028;53.558;9.950;2024-01-11T11:55:06;102982.44;;;0.17;92.72
77090;BME280;66028;53.558;9.950;2024-01-11T11:57:33;102980.63;;;0.18;92.67
77090;BME280;66028;53.558;9.950;2024-01-11T11:59:59;102980.63;;;0.18;92.96
77090;BME280;66028;53.558;9.950;2024-01-11T12:02:26;102956.66;;;0.18;93.04
77090;BME280;66028;53.558;9.950;2024-01-11T12:04:52;102955.66;;;0.08;93.00
77090;BME280;66028;53.558;9.950;2024-01-11T12:07:17;102954.09;;;0.16;93.15
77090;BME280;66028;53.558;9.950;2024-01-11T12:09:43;102964.31;;;0.22;93.02
77090;BME280;66028;53.558;9.950;2024-01-11T12:12:09;102946.63;;;0.21;92.58
77090;BME280;66028;53.558;9.950;2024-01-11T12:14:35;102940.91;;;0.26;92.70
77090;BME280;66028;53.558;9.950;2024-01-11T12:17:01;102932.81;;;0.27;93.23
77090;BME280;66028;53.558;9.950;2024-01-11T12:19:27;102942.63;;;0.27;92.59
77090;BME280;66028;53.558;9.950;2024-01-11T12:21:53;102932.81;;;0.39;92.67
77090;BME280;66028;53.558;9.950;2024-01-11T12:24:19;102938.03;;;0.29;93.29
77090;BME280;66028;53.558;9.950;2024-01-11T12:26:47;102924.94;;;0.37;93.08
77090;BME280;66028;53.558;9.950;2024-01-11T12:29:13;102923.00;;;0.39;92.77
77090;BME280;66028;53.558;9.950;2024-01-11T12:31:38;102917.22;;;0.45;92.89
77090;BME280;66028;53.558;9.950;2024-01-11T12:34:04;102905.09;;;0.41;93.27
77090;BME280;66028;53.558;9.950;2024-01-11T12:36:30;102905.56;;;0.46;93.25
77090;BME280;66028;53.558;9.950;2024-01-11T12:38:55;102915.97;;;0.49;92.81
77090;BME280;66028;53.558;9.950;2024-01-11T12:41:23;102922.03;;;0.51;93.11
77090;BME280;66028;53.558;9.950;2024-01-11T12:43:49;102918.53;;;0.51;93.02
77090;BME280;66028;53.558;9.950;2024-01-11T12:46:15;102921.81;;;0.54;93.10